sensor_id;sensor_type;location;lat;lon;timestamp;pressure;altitude;pressure_sealevel;temperature;humidity
71344;BME280;59146;43.850;25.948;2023-12-28T00:00:19;102282.59;;;6.70;81.61
71344;BME280;59146;43.850;25.948;2023-12-28T00:02:45;102312.72;;;6.80;81.64
71344;BME280;59146;43.850;25.948;2023-12-28T00:05:10;102264.94;;;6.37;82.56
71344;BME280;59146;43.850;25.948;2023-12-28T00:07:36;102263.50;;;6.19;84.64
71344;BME280;59146;43.850;25.948;2023-12-28T00:10:02;102278.91;;;6.28;86.03
71344;BME280;59146;43.850;25.948;2023-12-28T00:12:28;102316.59;;;6.54;85.81
71344;BME280;59146;43.850;25.948;2023-12-28T00:14:53;102256.75;;;6.06;87.08
71344;BME280;59146;43.850;25.948;2023-12-28T00:17:19;102247.53;;;5.86;85.15
71344;BME280;59146;43.850;25.948;2023-12-28T00:19:44;102265.56;;;5.93;85.41
71344;BME280;59146;43.850;25.948;2023-12-28T00:22:10;102314.31;;;6.34;86.68
71344;BME280;59146;43.850;25.948;2023-12-28T00:24:35;102305.69;;;6.32;85.77
71344;BME280;59146;43.850;25.948;2023-12-28T00:27:00;102245.88;;;5.80;86.44
71344;BME280;59146;43.850;25.948;2023-12-28T00:29:26;102249.34;;;5.78;85.80
71344;BME280;59146;43.850;25.948;2023-12-28T00:31:51;102268.28;;;5.83;86.59
71344;BME280;59146;43.850;25.948;2023-12-28T00:34:17;102330.78;;;6.31;89.71
71344;BME280;59146;43.850;25.948;2023-12-28T00:36:42;102337.94;;;6.14;91.22
71344;BME280;59146;43.850;25.948;2023-12-28T00:39:07;102320.09;;;5.89;91.58
71344;BME280;59146;43.850;25.948;2023-12-28T00:41:33;102284.09;;;5.64;91.90
71344;BME280;59146;43.850;25.948;2023-12-28T00:43:59;102258.19;;;5.61;91.49
71344;BME280;59146;43.850;25.948;2023-12-28T00:46:24;102265.84;;;5.71;90.69
71344;BME280;59146;43.850;25.948;2023-12-28T00:48:50;102310.75;;;5.74;89.83
71344;BME280;59146;43.850;25.948;2023-12-28T00:51:15;102329.75;;;5.75;90.30
71344;BME280;59146;43.850;25.948;2023-12-28T00:53:40;102285.09;;;5.51;90.73
71344;BME280;59146;43.850;25.948;2023-12-28T00:56:06;102285.91;;;5.56;90.54
71344;BME280;59146;43.850;25.948;2023-12-28T00:58:32;102260.09;;;5.47;89.62
71344;BME280;59146;43.850;25.948;2023-12-28T01:00:57;102335.66;;;5.89;88.57
71344;BME280;59146;43.850;25.948;2023-12-28T01:03:23;102299.47;;;5.77;88.33
71344;BME280;59146;43.850;25.948;2023-12-28T01:05:50;102357.72;;;6.23;87.36
71344;BME280;59146;43.850;25.948;2023-12-28T01:08:17;102307.91;;;5.95;87.67
71344;BME280;59146;43.850;25.948;2023-12-28T01:10:43;102321.03;;;5.85;89.65
71344;BME280;59146;43.850;25.948;2023-12-28T01:13:08;102267.47;;;5.06;93.65
71344;BME280;59146;43.850;25.948;2023-12-28T01:15:34;102269.09;;;5.15;95.03
71344;BME280;59146;43.850;25.948;2023-12-28T01:17:59;102312.75;;;5.49;94.97
71344;BME280;59146;43.850;25.948;2023-12-28T01:20:24;102345.34;;;5.73;91.72
71344;BME280;59146;43.850;25.948;2023-12-28T01:22:50;102278.31;;;5.41;90.10
71344;BME280;59146;43.850;25.948;2023-12-28T01:25:15;102339.28;;;5.73;90.21
71344;BME280;59146;43.850;25.948;2023-12-28T01:27:41;102296.22;;;5.62;90.02
71344;BME280;59146;43.850;25.948;2023-12-28T01:30:07;102312.44;;;5.80;88.63
71344;BME280;59146;43.850;25.948;2023-12-28T01:32:32;102333.06;;;5.90;87.17
71344;BME280;59146;43.850;25.948;2023-12-28T01:34:58;102276.56;;;5.43;87.87
71344;BME280;59146;43.850;25.948;2023-12-28T01:37:23;102346.94;;;5.85;88.20
71344;BME280;59146;43.850;25.948;2023-12-28T01:39:49;102284.94;;;5.65;87.12
71344;BME280;59146;43.850;25.948;2023-12-28T01:42:14;102274.78;;;5.47;86.61
71344;BME280;59146;43.850;25.948;2023-12-28T01:44:39;102347.88;;;5.79;86.31
71344;BME280;59146;43.850;25.948;2023-12-28T01:47:05;102318.53;;;5.76;86.91
71344;BME280;59146;43.850;25.948;2023-12-28T01:49:32;102314.97;;;5.83;86.39
71344;BME280;59146;43.850;25.948;2023-12-28T01:52:00;102304.66;;;5.80;85.88
71344;BME280;59146;43.850;25.948;2023-12-28T01:54:26;102301.34;;;5.65;85.99
71344;BME280;59146;43.850;25.948;2023-12-28T01:56:52;102317.66;;;5.75;86.66
71344;BME280;59146;43.850;25.948;2023-12-28T01:59:17;102331.25;;;5.95;86.44
71344;BME280;59146;43.850;25.948;2023-12-28T02:01:44;102202.47;;;5.26;85.61
71344;BME280;59146;43.850;25.948;2023-12-28T02:04:10;102327.03;;;5.90;84.53
71344;BME280;59146;43.850;25.948;2023-12-28T02:06:36;102294.38;;;5.71;84.95
71344;BME280;59146;43.850;25.948;2023-12-28T02:09:01;102268.03;;;5.35;86.70
71344;BME280;59146;43.850;25.948;2023-12-28T02:11:27;102310.03;;;5.61;87.78
71344;BME280;59146;43.850;25.948;2023-12-28T02:13:53;102260.25;;;5.35;86.41
71344;BME280;59146;43.850;25.948;2023-12-28T02:16:36;102306.66;;;5.53;87.15
71344;BME280;59146;43.850;25.948;2023-12-28T02:19:25;102270.66;;;5.28;87.40
71344;BME280;59146;43.850;25.948;2023-12-28T02:21:54;102340.41;;;5.50;88.53
71344;BME280;59146;43.850;25.948;2023-12-28T02:24:20;102323.06;;;5.55;87.84
71344;BME280;59146;43.850;25.948;2023-12-28T02:26:45;102318.78;;;5.51;86.38
71344;BME280;59146;43.850;25.948;2023-12-28T02:29:11;102254.53;;;5.06;86.92
71344;BME280;59146;43.850;25.948;2023-12-28T02:31:41;102305.91;;;5.45;87.10
71344;BME280;59146;43.850;25.948;2023-12-28T02:34:20;102301.56;;;5.47;85.82
71344;BME280;59146;43.850;25.948;2023-12-28T02:36:48;102332.59;;;5.53;85.62
71344;BME280;59146;43.850;25.948;2023-12-28T02:39:14;102252.91;;;4.96;86.06
71344;BME280;59146;43.850;25.948;2023-12-28T02:41:44;102326.69;;;5.41;86.74
71344;BME280;59146;43.850;25.948;2023-12-28T02:44:10;102321.47;;;5.45;87.09
71344;BME280;59146;43.850;25.948;2023-12-28T02:46:36;102240.53;;;5.21;85.75
71344;BME280;59146;43.850;25.948;2023-12-28T02:49:01;102189.34;;;4.63;86.21
71344;BME280;59146;43.850;25.948;2023-12-28T02:51:27;102326.78;;;5.30;86.51
71344;BME280;59146;43.850;25.948;2023-12-28T02:53:52;102246.13;;;4.83;87.32
71344;BME280;59146;43.850;25.948;2023-12-28T02:56:18;102253.06;;;4.76;88.38
71344;BME280;59146;43.850;25.948;2023-12-28T02:58:43;102230.06;;;4.45;90.49
71344;BME280;59146;43.850;25.948;2023-12-28T03:01:08;102328.13;;;4.81;91.28
71344;BME280;59146;43.850;25.948;2023-12-28T03:03:34;102318.78;;;4.62;94.24
71344;BME280;59146;43.850;25.948;2023-12-28T03:05:59;102324.06;;;4.47;98.13
71344;BME280;59146;43.850;25.948;2023-12-28T03:08:25;102265.78;;;3.90;100.00
71344;BME280;59146;43.850;25.948;2023-12-28T03:10:50;102325.06;;;4.25;100.00
71344;BME280;59146;43.850;25.948;2023-12-28T03:13:15;102295.13;;;3.83;100.00
71344;BME280;59146;43.850;25.948;2023-12-28T03:15:41;102257.19;;;3.86;100.00
71344;BME280;59146;43.850;25.948;2023-12-28T03:18:06;102254.66;;;3.74;100.00
71344;BME280;59146;43.850;25.948;2023-12-28T03:20:32;102323.47;;;4.04;100.00
71344;BME280;59146;43.850;25.948;2023-12-28T03:22:58;102199.72;;;3.36;100.00
71344;BME280;59146;43.850;25.948;2023-12-28T03:25:23;102259.94;;;3.53;100.00
71344;BME280;59146;43.850;25.948;2023-12-28T03:27:48;102251.25;;;3.65;100.00
71344;BME280;59146;43.850;25.948;2023-12-28T03:30:14;102248.81;;;3.39;100.00
71344;BME280;59146;43.850;25.948;2023-12-28T03:32:39;102311.47;;;3.83;100.00
71344;BME280;59146;43.850;25.948;2023-12-28T03:35:05;102318.38;;;3.87;100.00
71344;BME280;59146;43.850;25.948;2023-12-28T03:37:32;102313.22;;;3.81;100.00
71344;BME280;59146;43.850;25.948;2023-12-28T03:39:57;102330.47;;;3.73;100.00
71344;BME280;59146;43.850;25.948;2023-12-28T03:42:22;102251.47;;;3.12;100.00
71344;BME280;59146;43.850;25.948;2023-12-28T03:44:48;102336.63;;;3.39;100.00
71344;BME280;59146;43.850;25.948;2023-12-28T03:47:13;102347.78;;;3.46;100.00
71344;BME280;59146;43.850;25.948;2023-12-28T03:49:39;102350.38;;;3.38;100.00
71344;BME280;59146;43.850;25.948;2023-12-28T03:52:04;102345.28;;;3.14;100.00
71344;BME280;59146;43.850;25.948;2023-12-28T03:54:30;102278.16;;;2.54;100.00
71344;BME280;59146;43.850;25.948;2023-12-28T03:56:55;102300.53;;;2.67;100.00
71344;BME280;59146;43.850;25.948;2023-12-28T03:59:21;102329.78;;;3.00;100.00
71344;BME280;59146;43.850;25.948;2023-12-28T04:01:46;102270.44;;;2.82;100.00
71344;BME280;59146;43.850;25.948;2023-12-28T04:04:12;102347.84;;;3.14;100.00
71344;BME280;59146;43.850;25.948;2023-12-28T04:06:38;102289.38;;;2.62;100.00
71344;BME280;59146;43.850;25.948;2023-12-28T04:09:03;102339.25;;;2.67;100.00
71344;BME280;59146;43.850;25.948;2023-12-28T04:11:29;102267.00;;;2.39;100.00
71344;BME280;59146;43.850;25.948;2023-12-28T04:13:54;102242.91;;;2.33;100.00
71344;BME280;59146;43.850;25.948;2023-12-28T04:16:20;102273.88;;;2.65;100.00
71344;BME280;59146;43.850;25.948;2023-12-28T04:18:46;102359.00;;;3.34;100.00
71344;BME280;59146;43.850;25.948;2023-12-28T04:21:12;102367.63;;;3.21;100.00
71344;BME280;59146;43.850;25.948;2023-12-28T04:23:39;102224.00;;;2.23;100.00
71344;BME280;59146;43.850;25.948;2023-12-28T04:26:05;102304.84;;;2.53;100.00
71344;BME280;59146;43.850;25.948;2023-12-28T04:28:30;102279.03;;;2.40;100.00
71344;BME280;59146;43.850;25.948;2023-12-28T04:30:56;102306.56;;;2.57;100.00
71344;BME280;59146;43.850;25.948;2023-12-28T04:33:21;102296.22;;;2.69;100.00
71344;BME280;59146;43.850;25.948;2023-12-28T04:35:47;102301.41;;;2.78;100.00
71344;BME280;59146;43.850;25.948;2023-12-28T04:38:12;102355.63;;;2.97;100.00
71344;BME280;59146;43.850;25.948;2023-12-28T04:40:38;102294.50;;;2.48;100.00
71344;BME280;59146;43.850;25.948;2023-12-28T04:43:04;102284.19;;;2.43;100.00
71344;BME280;59146;43.850;25.948;2023-12-28T04:45:29;102352.16;;;3.19;100.00
71344;BME280;59146;43.850;25.948;2023-12-28T04:47:55;102322.03;;;3.11;100.00
71344;BME280;59146;43.850;25.948;2023-12-28T04:50:20;102334.06;;;3.30;100.00
71344;BME280;59146;43.850;25.948;2023-12-28T04:52:46;102288.47;;;3.09;100.00
71344;BME280;59146;43.850;25.948;2023-12-28T04:55:11;102337.47;;;3.44;100.00
71344;BME280;59146;43.850;25.948;2023-12-28T04:57:36;102328.84;;;3.45;100.00
71344;BME280;59146;43.850;25.948;2023-12-28T05:00:02;102277.22;;;3.30;100.00
71344;BME280;59146;43.850;25.948;2023-12-28T05:02:28;102262.69;;;2.97;100.00
71344;BME280;59146;43.850;25.948;2023-12-28T05:04:54;102253.22;;;2.86;100.00
71344;BME280;59146;43.850;25.948;2023-12-28T05:07:19;102336.66;;;3.10;100.00
71344;BME280;59146;43.850;25.948;2023-12-28T05:09:45;102334.09;;;2.97;100.00
71344;BME280;59146;43.850;25.948;2023-12-28T05:12:10;102279.91;;;2.71;100.00
71344;BME280;59146;43.850;25.948;2023-12-28T05:14:35;102317.72;;;2.77;100.00
71344;BME280;59146;43.850;25.948;2023-12-28T05:17:01;102273.88;;;2.53;100.00
71344;BME280;59146;43.850;25.948;2023-12-28T05:19:26;102262.72;;;2.38;100.00
71344;BME280;59146;43.850;25.948;2023-12-28T05:21:52;102262.72;;;2.32;100.00
71344;BME280;59146;43.850;25.948;2023-12-28T05:24:17;102295.38;;;2.59;100.00
71344;BME280;59146;43.850;25.948;2023-12-28T05:26:42;102253.22;;;2.50;100.00
71344;BME280;59146;43.850;25.948;2023-12-28T05:29:08;102326.34;;;2.92;100.00
71344;BME280;59146;43.850;25.948;2023-12-28T05:31:33;102246.34;;;2.41;100.00
71344;BME280;59146;43.850;25.948;2023-12-28T05:33:59;102328.94;;;2.85;100.00
71344;BME280;59146;43.850;25.948;2023-12-28T05:36:24;102310.88;;;2.85;100.00
71344;BME280;59146;43.850;25.948;2023-12-28T05:38:50;102323.75;;;2.88;100.00
71344;BME280;59146;43.850;25.948;2023-12-28T05:41:16;102245.50;;;2.50;100.00
71344;BME280;59146;43.850;25.948;2023-12-28T05:43:41;102292.78;;;2.67;100.00
71344;BME280;59146;43.850;25.948;2023-12-28T05:46:06;102260.97;;;2.54;100.00
71344;BME280;59146;43.850;25.948;2023-12-28T05:48:32;102321.19;;;2.76;100.00
71344;BME280;59146;43.850;25.948;2023-12-28T05:50:57;102260.13;;;2.40;100.00
71344;BME280;59146;43.850;25.948;2023-12-28T05:53:26;102321.19;;;2.85;100.00
71344;BME280;59146;43.850;25.948;2023-12-28T05:55:53;102328.94;;;2.85;100.00
71344;BME280;59146;43.850;25.948;2023-12-28T05:58:18;102326.34;;;2.82;100.00
71344;BME280;59146;43.850;25.948;2023-12-28T06:00:43;102206.78;;;2.18;100.00
71344;BME280;59146;43.850;25.948;2023-12-28T06:03:11;102245.50;;;2.43;100.00
71344;BME280;59146;43.850;25.948;2023-12-28T06:05:36;102252.38;;;2.51;100.00
71344;BME280;59146;43.850;25.948;2023-12-28T06:08:02;102267.84;;;2.70;100.00
71344;BME280;59146;43.850;25.948;2023-12-28T06:10:27;102192.22;;;2.27;100.00
71344;BME280;59146;43.850;25.948;2023-12-28T06:12:53;102299.69;;;2.89;100.00
71344;BME280;59146;43.850;25.948;2023-12-28T06:15:18;102286.78;;;2.89;100.00
71344;BME280;59146;43.850;25.948;2023-12-28T06:17:44;102273.88;;;2.99;100.00
71344;BME280;59146;43.850;25.948;2023-12-28T06:20:09;102309.94;;;3.34;99.31
71344;BME280;59146;43.850;25.948;2023-12-28T06:22:38;102114.84;;;2.32;98.02
71344;BME280;59146;43.850;25.948;2023-12-28T06:25:04;102318.56;;;3.29;98.21
71344;BME280;59146;43.850;25.948;2023-12-28T06:27:30;102237.66;;;3.14;97.78
71344;BME280;59146;43.850;25.948;2023-12-28T06:29:55;102328.81;;;3.66;96.07
71344;BME280;59146;43.850;25.948;2023-12-28T06:32:23;102299.56;;;3.46;96.48
71344;BME280;59146;43.850;25.948;2023-12-28T06:34:48;102316.75;;;3.62;97.13
71344;BME280;59146;43.850;25.948;2023-12-28T06:37:14;102242.78;;;3.33;95.79
71344;BME280;59146;43.850;25.948;2023-12-28T06:39:40;102316.69;;;3.74;95.54
71344;BME280;59146;43.850;25.948;2023-12-28T06:42:06;102176.69;;;2.80;95.52
71344;BME280;59146;43.850;25.948;2023-12-28T06:44:31;102248.78;;;3.36;94.74
71344;BME280;59146;43.850;25.948;2023-12-28T06:46:57;102287.53;;;3.41;95.86
71344;BME280;59146;43.850;25.948;2023-12-28T06:49:23;102319.19;;;3.95;96.07
71344;BME280;59146;43.850;25.948;2023-12-28T06:51:48;102273.69;;;3.64;94.52
71344;BME280;59146;43.850;25.948;2023-12-28T06:54:14;102228.03;;;3.54;94.71
71344;BME280;59146;43.850;25.948;2023-12-28T06:56:40;102253.59;;;4.15;93.16
71344;BME280;59146;43.850;25.948;2023-12-28T06:59:05;102250.78;;;4.40;90.39
71344;BME280;59146;43.850;25.948;2023-12-28T07:01:31;102302.25;;;4.78;90.55
71344;BME280;59146;43.850;25.948;2023-12-28T07:03:56;102285.06;;;4.71;89.06
71344;BME280;59146;43.850;25.948;2023-12-28T07:06:24;102298.81;;;4.76;89.22
71344;BME280;59146;43.850;25.948;2023-12-28T07:08:49;102297.94;;;4.75;89.51
71344;BME280;59146;43.850;25.948;2023-12-28T07:11:15;102317.88;;;4.63;89.65
71344;BME280;59146;43.850;25.948;2023-12-28T07:13:40;102317.09;;;4.55;90.75
71344;BME280;59146;43.850;25.948;2023-12-28T07:16:06;102318.03;;;4.45;91.61
71344;BME280;59146;43.850;25.948;2023-12-28T07:18:32;102273.28;;;4.31;92.31
71344;BME280;59146;43.850;25.948;2023-12-28T07:20:58;102273.19;;;4.46;90.80
71344;BME280;59146;43.850;25.948;2023-12-28T07:23:23;102286.88;;;4.57;90.93
71344;BME280;59146;43.850;25.948;2023-12-28T07:25:49;102334.13;;;4.84;90.17
71344;BME280;59146;43.850;25.948;2023-12-28T07:28:14;102345.38;;;4.83;90.43
71344;BME280;59146;43.850;25.948;2023-12-28T07:30:40;102292.97;;;4.53;91.30
71344;BME280;59146;43.850;25.948;2023-12-28T07:33:06;102280.81;;;4.59;90.04
71344;BME280;59146;43.850;25.948;2023-12-28T07:35:32;102347.84;;;4.97;89.36
71344;BME280;59146;43.850;25.948;2023-12-28T07:37:57;102345.19;;;5.03;89.59
71344;BME280;59146;43.850;25.948;2023-12-28T07:40:22;102341.63;;;5.13;87.99
71344;BME280;59146;43.850;25.948;2023-12-28T07:42:48;102267.84;;;4.64;88.06
71344;BME280;59146;43.850;25.948;2023-12-28T07:45:13;102283.41;;;4.61;88.81
71344;BME280;59146;43.850;25.948;2023-12-28T07:47:39;102325.38;;;4.99;88.33
71344;BME280;59146;43.850;25.948;2023-12-28T07:50:05;102277.28;;;4.69;88.49
71344;BME280;59146;43.850;25.948;2023-12-28T07:52:30;102348.69;;;4.99;89.68
71344;BME280;59146;43.850;25.948;2023-12-28T07:54:55;102329.00;;;4.75;89.58
71344;BME280;59146;43.850;25.948;2023-12-28T07:57:21;102304.00;;;4.76;89.39
71344;BME280;59146;43.850;25.948;2023-12-28T07:59:47;102369.28;;;5.13;89.71
71344;BME280;59146;43.850;25.948;2023-12-28T08:02:12;102302.34;;;4.69;89.45
71344;BME280;59146;43.850;25.948;2023-12-28T08:04:38;102278.25;;;4.58;88.36
71344;BME280;59146;43.850;25.948;2023-12-28T08:07:03;102253.31;;;4.49;87.98
71344;BME280;59146;43.850;25.948;2023-12-28T08:09:29;102242.81;;;4.63;87.49
71344;BME280;59146;43.850;25.948;2023-12-28T08:11:55;102356.94;;;5.39;87.17
71344;BME280;59146;43.850;25.948;2023-12-28T08:14:21;102351.78;;;5.37;87.14
71344;BME280;59146;43.850;25.948;2023-12-28T08:16:46;102290.69;;;5.17;86.40
71344;BME280;59146;43.850;25.948;2023-12-28T08:19:11;102303.47;;;5.30;86.09
71344;BME280;59146;43.850;25.948;2023-12-28T08:21:37;102347.91;;;5.75;85.35
71344;BME280;59146;43.850;25.948;2023-12-28T08:24:02;102338.44;;;5.71;85.22
71344;BME280;59146;43.850;25.948;2023-12-28T08:26:28;102290.47;;;5.35;85.91
71344;BME280;59146;43.850;25.948;2023-12-28T08:28:53;102343.41;;;5.92;85.18
71344;BME280;59146;43.850;25.948;2023-12-28T08:31:19;102298.63;;;5.78;84.84
71344;BME280;59146;43.850;25.948;2023-12-28T08:33:44;102282.16;;;5.79;84.88
71344;BME280;59146;43.850;25.948;2023-12-28T08:36:09;102288.78;;;6.04;84.77
71344;BME280;59146;43.850;25.948;2023-12-28T08:38:36;102341.88;;;6.41;83.16
71344;BME280;59146;43.850;25.948;2023-12-28T08:41:02;102284.44;;;6.07;83.06
71344;BME280;59146;43.850;25.948;2023-12-28T08:43:29;102362.09;;;6.77;82.32
71344;BME280;59146;43.850;25.948;2023-12-28T08:45:54;102285.47;;;6.52;81.13
71344;BME280;59146;43.850;25.948;2023-12-28T08:48:20;102340.13;;;6.98;79.51
71344;BME280;59146;43.850;25.948;2023-12-28T08:50:46;102266.25;;;6.62;79.44
71344;BME280;59146;43.850;25.948;2023-12-28T08:53:11;102312.41;;;6.98;79.11
71344;BME280;59146;43.850;25.948;2023-12-28T08:55:37;102342.00;;;7.39;78.52
71344;BME280;59146;43.850;25.948;2023-12-28T08:58:02;102267.22;;;7.07;77.80
71344;BME280;59146;43.850;25.948;2023-12-28T09:00:28;102269.13;;;6.97;78.26
71344;BME280;59146;43.850;25.948;2023-12-28T09:02:53;102278.41;;;7.10;78.66
71344;BME280;59146;43.850;25.948;2023-12-28T09:05:18;102321.84;;;7.51;78.17
71344;BME280;59146;43.850;25.948;2023-12-28T09:07:44;102328.56;;;7.61;77.40
71344;BME280;59146;43.850;25.948;2023-12-28T09:10:12;102255.34;;;6.92;78.78
71344;BME280;59146;43.850;25.948;2023-12-28T09:12:40;102224.03;;;7.01;78.20
71344;BME280;59146;43.850;25.948;2023-12-28T09:15:06;102276.09;;;7.40;77.83
71344;BME280;59146;43.850;25.948;2023-12-28T09:17:31;102240.69;;;7.34;77.99
71344;BME280;59146;43.850;25.948;2023-12-28T09:19:57;102300.75;;;7.65;77.43
71344;BME280;59146;43.850;25.948;2023-12-28T09:22:27;102284.16;;;7.70;77.78
71344;BME280;59146;43.850;25.948;2023-12-28T09:24:52;102302.69;;;7.96;76.67
71344;BME280;59146;43.850;25.948;2023-12-28T09:27:18;102222.25;;;7.48;76.67
71344;BME280;59146;43.850;25.948;2023-12-28T09:29:43;102287.47;;;7.78;77.92
71344;BME280;59146;43.850;25.948;2023-12-28T09:32:08;102255.91;;;7.54;79.17
71344;BME280;59146;43.850;25.948;2023-12-28T09:34:34;102269.91;;;7.88;77.83
71344;BME280;59146;43.850;25.948;2023-12-28T09:36:59;102266.38;;;8.30;76.88
71344;BME280;59146;43.850;25.948;2023-12-28T09:39:25;102207.31;;;7.94;75.42
71344;BME280;59146;43.850;25.948;2023-12-28T09:41:55;102263.22;;;8.16;76.17
71344;BME280;59146;43.850;25.948;2023-12-28T09:44:24;102255.41;;;8.16;76.22
71344;BME280;59146;43.850;25.948;2023-12-28T09:46:50;102148.38;;;7.93;75.60
71344;BME280;59146;43.850;25.948;2023-12-28T09:49:19;102196.19;;;8.24;74.43
71344;BME280;59146;43.850;25.948;2023-12-28T09:51:47;102237.53;;;8.39;74.78
71344;BME280;59146;43.850;25.948;2023-12-28T09:54:12;102246.06;;;8.44;75.36
71344;BME280;59146;43.850;25.948;2023-12-28T09:56:40;102230.31;;;8.50;74.79
71344;BME280;59146;43.850;25.948;2023-12-28T09:59:06;102231.47;;;8.72;73.82
71344;BME280;59146;43.850;25.948;2023-12-28T10:01:33;102231.13;;;8.52;74.13
71344;BME280;59146;43.850;25.948;2023-12-28T10:03:59;102227.19;;;8.70;73.62
71344;BME280;59146;43.850;25.948;2023-12-28T10:06:24;102141.50;;;8.59;73.41
71344;BME280;59146;43.850;25.948;2023-12-28T10:08:50;102165.19;;;9.13;71.58
71344;BME280;59146;43.850;25.948;2023-12-28T10:11:17;102167.84;;;9.12;70.51
71344;BME280;59146;43.850;25.948;2023-12-28T10:13:43;102212.91;;;9.17;72.24
71344;BME280;59146;43.850;25.948;2023-12-28T10:16:12;102148.03;;;9.06;71.97
71344;BME280;59146;43.850;25.948;2023-12-28T10:18:44;102156.19;;;9.25;71.58
71344;BME280;59146;43.850;25.948;2023-12-28T10:21:11;102214.22;;;9.90;69.74
71344;BME280;59146;43.850;25.948;2023-12-28T10:23:37;102147.72;;;9.46;70.25
71344;BME280;59146;43.850;25.948;2023-12-28T10:26:04;102192.59;;;9.86;70.46
71344;BME280;59146;43.850;25.948;2023-12-28T10:28:34;102183.94;;;10.12;69.70
71344;BME280;59146;43.850;25.948;2023-12-28T10:31:00;102162.50;;;10.28;68.29
71344;BME280;59146;43.850;25.948;2023-12-28T10:33:26;102174.28;;;10.15;68.74
71344;BME280;59146;43.850;25.948;2023-12-28T10:35:52;102178.94;;;10.04;69.17
71344;BME280;59146;43.850;25.948;2023-12-28T10:38:20;102160.41;;;10.39;68.35
71344;BME280;59146;43.850;25.948;2023-12-28T10:40:46;102169.16;;;10.63;66.92
71344;BME280;59146;43.850;25.948;2023-12-28T10:43:16;102094.34;;;10.11;66.82
71344;BME280;59146;43.850;25.948;2023-12-28T10:45:46;102116.38;;;10.01;68.28
71344;BME280;59146;43.850;25.948;2023-12-28T10:48:12;102088.41;;;10.31;67.20
71344;BME280;59146;43.850;25.948;2023-12-28T10:50:51;102078.44;;;10.67;65.95
71344;BME280;59146;43.850;25.948;2023-12-28T10:56:07;102125.41;;;10.93;65.22
71344;BME280;59146;43.850;25.948;2023-12-28T10:58:47;102115.38;;;11.27;64.58
71344;BME280;59146;43.850;25.948;2023-12-28T11:01:18;102090.91;;;11.51;62.87
71344;BME280;59146;43.850;25.948;2023-12-28T11:03:57;102104.19;;;11.24;62.74
71344;BME280;59146;43.850;25.948;2023-12-28T11:06:26;102106.22;;;11.39;63.23
71344;BME280;59146;43.850;25.948;2023-12-28T11:08:53;102106.88;;;11.67;62.21
71344;BME280;59146;43.850;25.948;2023-12-28T11:11:21;102117.34;;;12.10;60.91
71344;BME280;59146;43.850;25.948;2023-12-28T11:13:47;102033.75;;;11.19;60.88
71344;BME280;59146;43.850;25.948;2023-12-28T11:16:14;102020.53;;;11.00;62.52
71344;BME280;59146;43.850;25.948;2023-12-28T11:18:39;102098.19;;;11.66;62.02
71344;BME280;59146;43.850;25.948;2023-12-28T11:21:05;102040.09;;;11.78;60.47
71344;BME280;59146;43.850;25.948;2023-12-28T11:23:31;102023.28;;;11.84;59.24
71344;BME280;59146;43.850;25.948;2023-12-28T11:25:57;102039.19;;;11.58;60.13
71344;BME280;59146;43.850;25.948;2023-12-28T11:28:23;102046.44;;;11.73;60.00
71344;BME280;59146;43.850;25.948;2023-12-28T11:30:49;102093.69;;;12.32;59.04
71344;BME280;59146;43.850;25.948;2023-12-28T11:33:14;102095.81;;;12.44;58.21
71344;BME280;59146;43.850;25.948;2023-12-28T11:35:41;102080.66;;;12.30;58.08
71344;BME280;59146;43.850;25.948;2023-12-28T11:38:09;102021.09;;;11.73;59.81
71344;BME280;59146;43.850;25.948;2023-12-28T11:40:47;102010.91;;;12.08;57.61
71344;BME280;59146;43.850;25.948;2023-12-28T11:43:19;102078.22;;;12.66;57.55
71344;BME280;59146;43.850;25.948;2023-12-28T11:45:54;102069.19;;;12.53;57.11
71344;BME280;59146;43.850;25.948;2023-12-28T11:48:27;102042.50;;;12.25;58.29
71344;BME280;59146;43.850;25.948;2023-12-28T11:50:57;102072.69;;;12.72;56.73
71344;BME280;59146;43.850;25.948;2023-12-28T11:53:24;102068.00;;;12.60;56.64
71344;BME280;59146;43.850;25.948;2023-12-28T11:55:49;102064.59;;;12.58;57.33
71344;BME280;59146;43.850;25.948;2023-12-28T11:58:18;102024.78;;;12.68;56.63
71344;BME280;59146;43.850;25.948;2023-12-28T12:00:44;102056.31;;;13.06;55.58
71344;BME280;59146;43.850;25.948;2023-12-28T12:03:10;102017.06;;;12.84;55.48
71344;BME280;59146;43.850;25.948;2023-12-28T12:05:37;102038.19;;;12.62;56.26
71344;BME280;59146;43.850;25.948;2023-12-28T12:08:03;102017.44;;;12.76;56.25
71344;BME280;59146;43.850;25.948;2023-12-28T12:10:28;101985.38;;;12.89;55.00
71344;BME280;59146;43.850;25.948;2023-12-28T12:12:54;102017.84;;;12.67;55.82
71344;BME280;59146;43.850;25.948;2023-12-28T12:15:19;102015.69;;;12.57;56.37
71344;BME280;59146;43.850;25.948;2023-12-28T12:17:45;102023.25;;;12.83;56.50
71344;BME280;59146;43.850;25.948;2023-12-28T12:20:11;101968.09;;;12.66;55.75
71344;BME280;59146;43.850;25.948;2023-12-28T12:22:36;101866.53;;;12.34;54.34
71344;BME280;59146;43.850;25.948;2023-12-28T12:25:03;101976.47;;;12.55;54.81
71344;BME280;59146;43.850;25.948;2023-12-28T12:27:30;101998.13;;;12.59;56.33
71344;BME280;59146;43.850;25.948;2023-12-28T12:29:56;102005.09;;;12.97;55.16
71344;BME280;59146;43.850;25.948;2023-12-28T12:32:22;102006.09;;;13.32;54.31
71344;BME280;59146;43.850;25.948;2023-12-28T12:34:49;101863.31;;;12.09;54.71
71344;BME280;59146;43.850;25.948;2023-12-28T12:37:15;101959.94;;;12.35;56.16
71344;BME280;59146;43.850;25.948;2023-12-28T12:39:40;101967.69;;;12.75;55.47
71344;BME280;59146;43.850;25.948;2023-12-28T12:42:06;101953.16;;;12.87;54.75